createdAt,value
2018-08-11T00:00:35.677Z,0.00
2018-08-11T00:01:35.679Z,0.00
2018-08-11T00:02:35.681Z,0.00
2018-08-11T00:03:35.684Z,0.00
2018-08-11T00:04:35.688Z,0.00
2018-08-11T00:05:35.691Z,0.00
2018-08-11T00:06:35.692Z,0.00
2018-08-11T00:07:35.694Z,0.00
2018-08-11T00:08:35.697Z,0.00
2018-08-11T00:09:35.699Z,0.00
2018-08-11T00:10:35.701Z,0.00
2018-08-11T00:11:35.704Z,0.00
2018-08-11T00:12:35.707Z,0.00
2018-08-11T00:13:35.711Z,0.00
2018-08-11T00:14:35.712Z,0.00
2018-08-11T00:15:35.720Z,0.00
2018-08-11T00:16:35.719Z,0.00
2018-08-11T00:17:35.724Z,0.00
2018-08-11T00:18:35.725Z,0.00
2018-08-11T00:19:35.726Z,0.00
2018-08-11T00:20:35.727Z,0.00
2018-08-11T00:21:35.729Z,0.00
2018-08-11T00:22:35.730Z,0.00
2018-08-11T00:23:35.738Z,0.00
2018-08-11T00:24:35.735Z,0.00
2018-08-11T00:25:35.739Z,0.00
2018-08-11T00:26:35.741Z,0.00
2018-08-11T00:27:35.742Z,0.00
2018-08-11T00:28:35.745Z,0.00
2018-08-11T00:29:35.747Z,0.00
2018-08-11T00:30:35.748Z,0.00
2018-08-11T00:31:35.754Z,0.00
2018-08-11T00:32:35.754Z,0.00
2018-08-11T00:33:35.756Z,0.00
2018-08-11T00:34:35.759Z,0.00
2018-08-11T00:35:35.760Z,0.00
2018-08-11T00:36:35.855Z,0.00
2018-08-11T00:37:35.765Z,0.00
2018-08-11T00:38:35.767Z,0.00
2018-08-11T00:39:35.767Z,0.00
2018-08-11T00:40:35.771Z,0.00
2018-08-11T00:41:35.772Z,0.00
2018-08-11T00:42:35.776Z,0.00
2018-08-11T00:43:35.775Z,0.00
2018-08-11T00:44:35.777Z,0.00
2018-08-11T00:45:35.779Z,0.00
2018-08-11T00:46:35.781Z,0.00
2018-08-11T00:47:35.782Z,0.00
2018-08-11T00:48:35.786Z,0.00
2018-08-11T00:49:35.843Z,0.00
2018-08-11T00:50:35.789Z,0.00
2018-08-11T00:51:35.794Z,0.00
2018-08-11T00:52:35.793Z,0.00
2018-08-11T00:53:35.793Z,0.00
2018-08-11T00:54:35.796Z,0.00
2018-08-11T00:55:35.797Z,0.00
2018-08-11T00:56:35.800Z,0.00
2018-08-11T00:57:35.800Z,0.00
2018-08-11T00:58:35.801Z,0.00
2018-08-11T00:59:35.803Z,0.00
2018-08-11T01:00:35.804Z,0.00
2018-08-11T01:01:35.806Z,0.00
2018-08-11T01:02:35.809Z,0.00
2018-08-11T01:03:35.809Z,0.00
2018-08-11T01:04:35.810Z,0.00
2018-08-11T01:05:35.815Z,0.00
2018-08-11T01:06:35.812Z,0.00
2018-08-11T01:07:35.811Z,0.00
2018-08-11T01:08:35.816Z,0.00
2018-08-11T01:09:35.815Z,0.00
2018-08-11T01:10:35.815Z,0.00
2018-08-11T01:11:35.817Z,0.00
2018-08-11T01:12:35.820Z,0.00
2018-08-11T01:13:35.819Z,0.00
2018-08-11T01:14:35.821Z,0.00
2018-08-11T01:15:35.820Z,0.00
2018-08-11T01:16:35.821Z,0.00
2018-08-11T01:17:35.822Z,0.00
2018-08-11T01:18:35.830Z,0.00
2018-08-11T01:19:35.826Z,0.00
2018-08-11T01:20:35.825Z,0.00
2018-08-11T01:21:35.824Z,0.00
2018-08-11T01:22:35.824Z,0.00
2018-08-11T01:23:35.826Z,0.00
2018-08-11T01:24:35.825Z,0.00
2018-08-11T01:25:35.826Z,0.00
2018-08-11T01:26:35.828Z,0.00
2018-08-11T01:27:35.827Z,0.00
2018-08-11T01:28:35.827Z,0.00
2018-08-11T01:29:35.831Z,0.00
2018-08-11T01:30:35.827Z,0.00
2018-08-11T01:31:35.828Z,0.00
2018-08-11T01:32:35.831Z,0.00
2018-08-11T01:33:35.829Z,0.00
2018-08-11T01:34:35.832Z,0.00
2018-08-11T01:35:35.830Z,0.00
2018-08-11T01:36:35.834Z,0.00
2018-08-11T01:37:35.833Z,0.00
2018-08-11T01:38:35.830Z,0.00
2018-08-11T01:39:35.830Z,0.00
2018-08-11T01:40:35.831Z,0.00
2018-08-11T01:41:35.841Z,0.00
2018-08-11T01:42:35.833Z,0.00
2018-08-11T01:43:35.833Z,0.00
2018-08-11T01:44:35.832Z,0.00
2018-08-11T01:45:35.833Z,0.00
2018-08-11T01:46:35.832Z,0.00
2018-08-11T01:47:35.836Z,0.00
2018-08-11T01:48:35.832Z,0.00
2018-08-11T01:49:35.832Z,0.00
2018-08-11T01:50:35.832Z,0.00
2018-08-11T01:51:35.832Z,0.00
2018-08-11T01:52:35.838Z,0.00
2018-08-11T01:53:35.832Z,0.00
2018-08-11T01:54:35.832Z,0.00
2018-08-11T01:55:35.834Z,0.00
2018-08-11T01:56:35.832Z,0.00
2018-08-11T01:57:35.833Z,0.00
2018-08-11T01:58:35.832Z,0.00
2018-08-11T01:59:35.832Z,0.00
2018-08-11T02:00:35.832Z,0.00
2018-08-11T02:01:35.832Z,0.00
2018-08-11T02:02:35.833Z,0.00
2018-08-11T02:03:35.832Z,0.00
2018-08-11T02:04:35.833Z,0.00
2018-08-11T02:05:35.832Z,0.00
2018-08-11T02:06:35.831Z,0.00
2018-08-11T02:07:35.839Z,0.00
2018-08-11T02:08:35.833Z,0.00
2018-08-11T02:09:35.832Z,0.00
2018-08-11T02:10:35.831Z,0.00
2018-08-11T02:11:35.831Z,0.00
2018-08-11T02:12:35.831Z,0.00
2018-08-11T02:15:35.831Z,0.00
2018-08-11T02:16:35.830Z,0.00
2018-08-11T02:17:35.830Z,0.00
2018-08-11T02:18:35.828Z,0.00
2018-08-11T02:19:35.828Z,0.00
2018-08-11T02:20:35.831Z,0.00
2018-08-11T02:21:35.829Z,0.00
2018-08-11T02:22:35.827Z,0.00
2018-08-11T02:23:35.831Z,0.00
2018-08-11T02:24:35.860Z,0.00
2018-08-11T02:25:35.825Z,0.00
2018-08-11T02:26:35.845Z,0.00
2018-08-11T02:27:35.824Z,0.00
2018-08-11T02:28:35.824Z,0.00
2018-08-11T02:29:35.826Z,0.00
2018-08-11T02:30:35.823Z,0.00
2018-08-11T02:31:35.827Z,0.00
2018-08-11T02:32:35.828Z,0.00
2018-08-11T02:33:35.826Z,0.00
2018-08-11T02:34:35.821Z,0.00
2018-08-11T02:35:35.821Z,0.00
2018-08-11T02:36:35.821Z,0.00
2018-08-11T02:37:35.820Z,0.00
2018-08-11T02:38:35.818Z,0.00
2018-08-11T02:39:35.818Z,0.00
2018-08-11T02:40:35.819Z,0.00
2018-08-11T02:41:35.818Z,0.00
2018-08-11T02:42:35.817Z,0.00
2018-08-11T02:43:35.816Z,0.00
2018-08-11T02:44:35.819Z,0.00
2018-08-11T02:45:35.815Z,0.00
2018-08-11T02:46:35.813Z,0.00
2018-08-11T02:47:35.818Z,0.00
2018-08-11T02:48:35.815Z,0.00
2018-08-11T02:49:35.816Z,0.00
2018-08-11T02:50:35.813Z,0.00
2018-08-11T02:51:35.815Z,0.00
2018-08-11T02:52:35.815Z,0.00
2018-08-11T02:53:35.813Z,0.00
2018-08-11T02:54:35.810Z,0.00
2018-08-11T02:55:35.809Z,0.00
2018-08-11T02:56:35.810Z,0.00
2018-08-11T02:57:35.808Z,0.00
2018-08-11T02:58:35.807Z,0.00
2018-08-11T02:59:35.812Z,0.00
2018-08-11T03:00:35.810Z,0.00
2018-08-11T03:01:35.806Z,0.00
2018-08-11T03:02:35.878Z,0.00
2018-08-11T03:03:35.808Z,0.00
2018-08-11T03:04:35.811Z,0.00
2018-08-11T03:05:35.805Z,0.00
2018-08-11T03:06:35.804Z,0.00
2018-08-11T03:07:35.806Z,0.00
2018-08-11T03:08:35.802Z,0.00
2018-08-11T03:09:35.807Z,0.00
2018-08-11T03:10:35.800Z,0.00
2018-08-11T03:11:35.803Z,0.00
2018-08-11T03:12:35.800Z,0.00
2018-08-11T03:13:35.800Z,0.00
2018-08-11T03:14:35.801Z,0.00
2018-08-11T03:15:35.801Z,0.00
2018-08-11T03:16:35.798Z,0.00
2018-08-11T03:17:35.798Z,0.00
2018-08-11T03:18:35.797Z,0.00
2018-08-11T03:19:35.795Z,0.00
2018-08-11T03:20:35.794Z,0.00
2018-08-11T03:21:35.797Z,0.00
2018-08-11T03:22:35.794Z,0.00
2018-08-11T03:23:35.797Z,0.00
2018-08-11T03:24:35.797Z,0.00
2018-08-11T03:25:35.791Z,0.00
2018-08-11T03:26:35.789Z,0.00
2018-08-11T03:27:35.794Z,0.00
2018-08-11T03:28:35.788Z,0.00
2018-08-11T03:29:35.788Z,0.00
2018-08-11T03:30:35.789Z,0.00
2018-08-11T03:31:35.787Z,0.00
2018-08-11T03:32:35.784Z,0.00
2018-08-11T03:33:35.786Z,0.00
2018-08-11T03:34:35.782Z,4.00
2018-08-11T03:35:35.786Z,4.00
2018-08-11T03:36:35.782Z,0.00
2018-08-11T03:37:35.781Z,4.00
2018-08-11T03:38:35.783Z,4.00
2018-08-11T03:39:35.781Z,4.00
2018-08-11T03:40:35.777Z,4.00
2018-08-11T03:41:35.776Z,8.00
2018-08-11T03:42:35.779Z,4.00
2018-08-11T03:43:35.774Z,8.00
2018-08-11T03:44:35.774Z,8.00
2018-08-11T03:45:35.774Z,8.00
2018-08-11T03:46:35.771Z,8.00
2018-08-11T03:47:35.773Z,12.00
2018-08-11T03:48:35.774Z,12.00
2018-08-11T03:49:35.771Z,12.00
2018-08-11T03:50:35.767Z,16.00
2018-08-11T03:51:35.767Z,20.00
2018-08-11T03:52:35.858Z,20.00
2018-08-11T03:53:35.765Z,20.00
2018-08-11T03:54:35.763Z,24.00
2018-08-11T03:55:35.762Z,32.00
2018-08-11T03:56:35.761Z,32.00
2018-08-11T03:57:35.761Z,28.00
2018-08-11T03:58:35.760Z,40.00
2018-08-11T03:59:35.759Z,44.00
2018-08-11T04:00:35.758Z,48.00
2018-08-11T04:01:35.756Z,48.00
2018-08-11T04:02:35.757Z,52.00
2018-08-11T04:03:35.757Z,64.00
2018-08-11T04:04:35.753Z,72.00
2018-08-11T04:05:35.754Z,76.00
2018-08-11T04:06:35.759Z,64.00
2018-08-11T04:07:35.750Z,72.00
2018-08-11T04:08:35.750Z,88.00
2018-08-11T04:09:35.749Z,116.00
2018-08-11T04:10:35.748Z,152.00
2018-08-11T04:11:35.747Z,176.00
2018-08-11T04:12:35.746Z,204.00
2018-08-11T04:13:35.752Z,212.00
2018-08-11T04:14:35.744Z,180.00
2018-08-11T04:15:35.751Z,244.00
2018-08-11T04:16:35.742Z,232.00
2018-08-11T04:17:35.747Z,264.00
2018-08-11T04:18:35.740Z,272.00
2018-08-11T04:19:35.746Z,272.00
2018-08-11T04:20:35.740Z,296.00
2018-08-11T04:21:35.740Z,332.00
2018-08-11T04:22:35.736Z,392.00
2018-08-11T04:23:35.740Z,428.00
2018-08-11T04:24:35.739Z,468.00
2018-08-11T04:25:35.736Z,504.00
2018-08-11T04:26:35.736Z,544.00
2018-08-11T04:27:35.737Z,572.00
2018-08-11T04:28:35.733Z,644.00
2018-08-11T04:29:35.730Z,704.00
2018-08-11T04:30:35.728Z,700.00
2018-08-11T04:31:35.725Z,592.00
2018-08-11T04:32:35.725Z,480.00
2018-08-11T04:33:35.734Z,472.00
2018-08-11T04:34:35.723Z,464.00
2018-08-11T04:35:35.727Z,472.00
2018-08-11T04:36:35.722Z,492.00
2018-08-11T04:37:35.721Z,520.00
2018-08-11T04:38:35.721Z,488.00
2018-08-11T04:39:35.719Z,460.00
2018-08-11T04:40:35.717Z,460.00
2018-08-11T04:41:35.718Z,492.00
2018-08-11T04:42:35.715Z,500.00
2018-08-11T04:43:35.713Z,488.00
2018-08-11T04:44:35.713Z,496.00
2018-08-11T04:45:35.713Z,584.00
2018-08-11T04:46:35.713Z,576.00
2018-08-11T04:47:35.711Z,868.00
2018-08-11T04:48:35.714Z,808.00
2018-08-11T04:49:35.708Z,852.00
2018-08-11T04:50:35.706Z,832.00
2018-08-11T04:51:35.707Z,832.00
2018-08-11T04:52:35.705Z,752.00
2018-08-11T04:53:35.705Z,696.00
2018-08-11T04:54:35.702Z,568.00
2018-08-11T04:55:35.702Z,640.00
2018-08-11T04:56:35.701Z,664.00
2018-08-11T04:57:35.706Z,652.00
2018-08-11T04:58:35.697Z,792.00
2018-08-11T04:59:35.695Z,776.00
2018-08-11T05:00:35.696Z,972.00
2018-08-11T05:01:35.695Z,1068.00
2018-08-11T05:02:35.699Z,1076.00
2018-08-11T05:03:35.692Z,1332.00
2018-08-11T05:04:35.696Z,1412.00
2018-08-11T05:05:35.692Z,1596.00
2018-08-11T05:06:35.689Z,1764.00
2018-08-11T05:07:35.688Z,1864.00
2018-08-11T05:08:35.689Z,1644.00
2018-08-11T05:09:35.687Z,1608.00
2018-08-11T05:10:35.686Z,1776.00
2018-08-11T05:11:35.683Z,1416.00
2018-08-11T05:12:35.693Z,1468.00
2018-08-11T05:13:35.689Z,1904.00
2018-08-11T05:14:35.682Z,1436.00
2018-08-11T05:15:35.681Z,1304.00
2018-08-11T05:16:35.679Z,1236.00
2018-08-11T05:17:35.683Z,1200.00
2018-08-11T05:18:35.676Z,1580.00
2018-08-11T05:19:35.675Z,1348.00
2018-08-11T05:20:35.676Z,1420.00
2018-08-11T05:21:35.674Z,1896.00
2018-08-11T05:22:35.673Z,2052.00
2018-08-11T05:23:35.672Z,1828.00
2018-08-11T05:24:35.672Z,1936.00
2018-08-11T05:25:35.671Z,1628.00
2018-08-11T05:26:35.668Z,1516.00
2018-08-11T05:27:35.668Z,1436.00
2018-08-11T05:28:35.667Z,1196.00
2018-08-11T05:29:35.666Z,1444.00
2018-08-11T05:30:35.667Z,1732.00
2018-08-11T05:31:35.668Z,2364.00
2018-08-11T05:32:35.668Z,1888.00
2018-08-11T05:33:35.665Z,1576.00
2018-08-11T05:34:35.661Z,1424.00
2018-08-11T05:35:35.661Z,1576.00
2018-08-11T05:36:35.661Z,1396.00
2018-08-11T05:37:35.660Z,1036.00
2018-08-11T05:38:35.667Z,1152.00
2018-08-11T05:39:35.660Z,1180.00
2018-08-11T05:40:35.657Z,1812.00
2018-08-11T05:41:35.714Z,3444.00
2018-08-11T05:42:35.657Z,4852.00
2018-08-11T05:43:35.655Z,4216.00
2018-08-11T05:44:35.655Z,3088.00
2018-08-11T05:45:35.656Z,1936.00
2018-08-11T05:46:35.652Z,1880.00
2018-08-11T05:47:35.652Z,1836.00
2018-08-11T05:48:35.651Z,1868.00
2018-08-11T05:49:35.650Z,2076.00
2018-08-11T05:50:35.651Z,3652.00
2018-08-11T05:51:35.648Z,5160.00
2018-08-11T05:52:35.648Z,3760.00
2018-08-11T05:53:35.649Z,5288.00
2018-08-11T05:54:35.646Z,5124.00
2018-08-11T05:55:35.647Z,4208.00
2018-08-11T05:56:35.648Z,4808.00
2018-08-11T05:57:35.645Z,5928.00
2018-08-11T05:58:35.645Z,4752.00
2018-08-11T05:59:35.645Z,6272.00
2018-08-11T06:00:35.649Z,5388.00
2018-08-11T06:01:35.644Z,3864.00
2018-08-11T06:02:35.641Z,5836.00
2018-08-11T06:03:35.643Z,3272.00
2018-08-11T06:04:35.640Z,3688.00
2018-08-11T06:05:35.639Z,3672.00
2018-08-11T06:06:35.642Z,5168.00
2018-08-11T06:07:35.638Z,3560.00
2018-08-11T06:08:35.646Z,2844.00
2018-08-11T06:09:35.643Z,4480.00
2018-08-11T06:10:35.696Z,4620.00
2018-08-11T06:11:35.636Z,5464.00
2018-08-11T06:12:35.636Z,3272.00
2018-08-11T06:13:35.637Z,5004.00
2018-08-11T06:14:35.636Z,7672.00
2018-08-11T06:15:35.636Z,7952.00
2018-08-11T06:16:35.634Z,8184.00
2018-08-11T06:17:35.638Z,5664.00
2018-08-11T06:18:35.637Z,8732.00
2018-08-11T06:19:35.632Z,6940.00
2018-08-11T06:20:35.633Z,5696.00
2018-08-11T06:21:35.633Z,4132.00
2018-08-11T06:22:35.633Z,5916.00
2018-08-11T06:23:35.633Z,4156.00
2018-08-11T06:24:35.636Z,7696.00
2018-08-11T06:25:35.635Z,7072.00
2018-08-11T06:26:35.638Z,6044.00
2018-08-11T06:27:35.631Z,6916.00
2018-08-11T06:28:35.633Z,7088.00
2018-08-11T06:29:35.632Z,5780.00
2018-08-11T06:30:35.631Z,6336.00
2018-08-11T06:31:35.701Z,8996.00
2018-08-11T06:32:35.633Z,6916.00
2018-08-11T06:33:35.632Z,5144.00
2018-08-11T06:34:35.647Z,5392.00
2018-08-11T06:35:35.631Z,5724.00
2018-08-11T06:36:35.631Z,6420.00
2018-08-11T06:37:35.631Z,6452.00
2018-08-11T06:38:35.630Z,7280.00
2018-08-11T06:39:35.631Z,7632.00
2018-08-11T06:40:35.696Z,6944.00
2018-08-11T06:41:35.632Z,6800.00
2018-08-11T06:42:35.630Z,9012.00
2018-08-11T06:43:35.632Z,7552.00
2018-08-11T06:44:35.630Z,8328.00
2018-08-11T06:45:35.631Z,7056.00
2018-08-11T06:46:35.645Z,6336.00
2018-08-11T06:47:35.630Z,4624.00
2018-08-11T06:48:35.631Z,6664.00
2018-08-11T06:49:35.631Z,11008.00
2018-08-11T06:50:35.630Z,7220.00
2018-08-11T06:51:35.630Z,11552.00
2018-08-11T06:52:35.632Z,7212.00
2018-08-11T06:53:35.631Z,5536.00
2018-08-11T06:54:35.631Z,8492.00
2018-08-11T06:55:35.728Z,6780.00
2018-08-11T06:56:35.633Z,8268.00
2018-08-11T06:57:35.631Z,5760.00
2018-08-11T06:58:35.632Z,5964.00
2018-08-11T06:59:35.631Z,6012.00
2018-08-11T07:00:35.632Z,7640.00
2018-08-11T07:01:35.633Z,9468.00
2018-08-11T07:02:35.632Z,8344.00
2018-08-11T07:03:35.633Z,7644.00
2018-08-11T07:04:35.633Z,10372.00
2018-08-11T07:05:35.639Z,6312.00
2018-08-11T07:06:35.717Z,7344.00
2018-08-11T07:07:35.634Z,8648.00
2018-08-11T07:08:35.636Z,9528.00
2018-08-11T07:09:35.638Z,9300.00
2018-08-11T07:10:35.659Z,8056.00
2018-08-11T07:11:35.638Z,8856.00
2018-08-11T07:12:35.636Z,10136.00
2018-08-11T07:13:35.638Z,9688.00
2018-08-11T07:14:35.639Z,8860.00
2018-08-11T07:15:35.642Z,7800.00
2018-08-11T07:16:35.643Z,7296.00
2018-08-11T07:17:35.642Z,6748.00
2018-08-11T07:18:35.641Z,6968.00
2018-08-11T07:19:35.642Z,8224.00
2018-08-11T07:20:35.646Z,6956.00
2018-08-11T07:21:35.643Z,6952.00
2018-08-11T07:22:35.643Z,7352.00
2018-08-11T07:23:35.644Z,6672.00
2018-08-11T07:24:35.652Z,6188.00
2018-08-11T07:25:35.646Z,6996.00
2018-08-11T07:26:35.755Z,8564.00
2018-08-11T07:27:35.648Z,8136.00
2018-08-11T07:28:35.647Z,7196.00
2018-08-11T07:29:35.650Z,8876.00
2018-08-11T07:30:35.650Z,9308.00
2018-08-11T07:31:35.650Z,5156.00
2018-08-11T07:32:35.652Z,5996.00
2018-08-11T07:33:35.652Z,6492.00
2018-08-11T07:34:35.652Z,6800.00
2018-08-11T07:35:35.653Z,8456.00
2018-08-11T07:36:35.730Z,7052.00
2018-08-11T07:37:35.655Z,7644.00
2018-08-11T07:38:35.657Z,7064.00
2018-08-11T07:39:35.657Z,7316.00
2018-08-11T07:40:35.657Z,6840.00
2018-08-11T07:41:35.662Z,6564.00
2018-08-11T07:42:35.660Z,6420.00
2018-08-11T07:43:35.660Z,6448.00
2018-08-11T07:44:35.667Z,6368.00
2018-08-11T07:45:35.662Z,7700.00
2018-08-11T07:46:35.663Z,7760.00
2018-08-11T07:47:35.679Z,7668.00
2018-08-11T07:48:35.666Z,7348.00
2018-08-11T07:49:35.666Z,9800.00
2018-08-11T07:50:35.666Z,12716.00
2018-08-11T07:51:35.670Z,13548.00
2018-08-11T07:52:35.673Z,13788.00
2018-08-11T07:53:35.674Z,8620.00
2018-08-11T07:54:35.669Z,4580.00
2018-08-11T07:55:35.671Z,7784.00
2018-08-11T07:56:35.673Z,13056.00
2018-08-11T07:57:35.673Z,13820.00
2018-08-11T07:58:35.678Z,7988.00
2018-08-11T07:59:35.676Z,9236.00
2018-08-11T08:00:35.678Z,9496.00
2018-08-11T08:01:35.680Z,7804.00
2018-08-11T08:02:35.681Z,15740.00
2018-08-11T08:03:35.683Z,6212.00
2018-08-11T08:04:35.684Z,6792.00
2018-08-11T08:05:35.686Z,12348.00
2018-08-11T08:06:35.685Z,40032.00
2018-08-11T08:07:35.687Z,80192.00
2018-08-11T08:08:35.691Z,74016.00
2018-08-11T08:09:35.693Z,47616.00
2018-08-11T08:10:35.693Z,79936.00
2018-08-11T08:11:35.705Z,14668.00
2018-08-11T08:12:35.701Z,23072.00
2018-08-11T08:13:35.705Z,60704.00
2018-08-11T08:14:35.705Z,30464.00
2018-08-11T08:15:35.710Z,40480.00
2018-08-11T08:16:35.713Z,54112.00
2018-08-11T08:17:35.718Z,16200.00
2018-08-11T08:18:35.720Z,9588.00
2018-08-11T08:19:35.727Z,19776.00
2018-08-11T08:20:35.733Z,10920.00
2018-08-11T08:21:35.736Z,14172.00
2018-08-11T08:22:35.739Z,19648.00
2018-08-11T08:23:35.744Z,12220.00
2018-08-11T08:24:35.747Z,33920.00
2018-08-11T08:25:35.755Z,6960.00
2018-08-11T08:26:35.841Z,22048.00
2018-08-11T08:27:35.761Z,92288.00
2018-08-11T08:28:35.766Z,90016.00
2018-08-11T08:29:35.773Z,93376.00
2018-08-11T08:30:35.773Z,15576.00
2018-08-11T08:31:35.779Z,7572.00
2018-08-11T08:32:35.784Z,85760.00
2018-08-11T08:33:35.790Z,87264.00
2018-08-11T08:34:35.795Z,9828.00
2018-08-11T08:35:35.802Z,89184.00
2018-08-11T08:36:35.806Z,11416.00
2018-08-11T08:37:35.815Z,9788.00
2018-08-11T08:38:35.819Z,11384.00
2018-08-11T08:39:35.824Z,11140.00
2018-08-11T08:40:35.832Z,9792.00
2018-08-11T08:41:35.851Z,49440.00
2018-08-11T08:42:35.845Z,7728.00
2018-08-11T08:43:35.851Z,8796.00
2018-08-11T08:44:35.857Z,81856.00
2018-08-11T08:45:35.862Z,86432.00
2018-08-11T08:46:35.869Z,88384.00
2018-08-11T08:47:35.939Z,84320.00
2018-08-11T08:48:35.880Z,90112.00
2018-08-11T08:49:35.887Z,12416.00
2018-08-11T08:50:35.894Z,86784.00
2018-08-11T08:51:35.901Z,14472.00
2018-08-11T08:52:35.908Z,6276.00
2018-08-11T08:53:35.915Z,87808.00
2018-08-11T08:54:35.922Z,87488.00
2018-08-11T08:55:35.931Z,85152.00
2018-08-11T08:56:35.937Z,66464.00
2018-08-11T08:57:35.945Z,38208.00
2018-08-11T08:58:35.952Z,21376.00
2018-08-11T08:59:35.960Z,59168.00
2018-08-11T09:00:35.969Z,12380.00
2018-08-11T09:01:35.978Z,9472.00
2018-08-11T09:02:35.985Z,23520.00
2018-08-11T09:03:35.993Z,21664.00
2018-08-11T09:04:36.003Z,8840.00
2018-08-11T09:05:36.012Z,5696.00
2018-08-11T09:06:36.017Z,6264.00
2018-08-11T09:07:36.028Z,5936.00
2018-08-11T09:08:36.033Z,10388.00
2018-08-11T09:09:36.042Z,83712.00
2018-08-11T09:10:36.047Z,6680.00
2018-08-11T09:11:36.055Z,4440.00
2018-08-11T09:12:36.063Z,4132.00
2018-08-11T09:13:36.070Z,9364.00
2018-08-11T09:14:36.077Z,13516.00
2018-08-11T09:15:36.082Z,8344.00
2018-08-11T09:16:36.089Z,5652.00
2018-08-11T09:17:36.096Z,7324.00
2018-08-11T09:18:36.105Z,10408.00
2018-08-11T09:19:36.174Z,61728.00
2018-08-11T09:20:36.116Z,25664.00
2018-08-11T09:21:36.121Z,11364.00
2018-08-11T09:22:36.126Z,10568.00
2018-08-11T09:23:36.133Z,8596.00
2018-08-11T09:24:36.142Z,7620.00
2018-08-11T09:25:36.148Z,9180.00
2018-08-11T09:26:36.152Z,6832.00
2018-08-11T09:27:36.159Z,5680.00
2018-08-11T09:28:36.166Z,6564.00
2018-08-11T09:29:36.174Z,8376.00
2018-08-11T09:30:36.177Z,9400.00
2018-08-11T09:31:36.181Z,32608.00
2018-08-11T09:32:36.189Z,18144.00
2018-08-11T09:33:36.195Z,8288.00
2018-08-11T09:34:36.200Z,5568.00
2018-08-11T09:35:36.207Z,7024.00
2018-08-11T09:36:36.214Z,7556.00
2018-08-11T09:37:36.220Z,12276.00
2018-08-11T09:38:36.230Z,9280.00
2018-08-11T09:39:36.230Z,8068.00
2018-08-11T09:40:36.236Z,19456.00
2018-08-11T09:41:36.244Z,34304.00
2018-08-11T09:42:36.248Z,13488.00
2018-08-11T09:43:36.254Z,32416.00
2018-08-11T09:44:36.262Z,8688.00
2018-08-11T09:45:36.270Z,8660.00
2018-08-11T09:46:36.273Z,6576.00
2018-08-11T09:47:36.278Z,5032.00
2018-08-11T09:48:36.287Z,4680.00
2018-08-11T09:49:36.294Z,5412.00
2018-08-11T09:50:36.299Z,7028.00
2018-08-11T09:51:36.310Z,6708.00
2018-08-11T09:52:36.316Z,42656.00
2018-08-11T09:53:36.319Z,45024.00
2018-08-11T09:54:36.325Z,43232.00
2018-08-11T09:55:36.331Z,41472.00
2018-08-11T09:56:36.338Z,40640.00
2018-08-11T09:57:36.345Z,38720.00
2018-08-11T09:58:36.401Z,11976.00
2018-08-11T09:59:36.359Z,34208.00
2018-08-11T10:00:36.369Z,34720.00
2018-08-11T10:01:36.374Z,35456.00
2018-08-11T10:02:36.380Z,6896.00
2018-08-11T10:03:36.390Z,8256.00
2018-08-11T10:04:36.398Z,35968.00
2018-08-11T10:05:36.408Z,36736.00
2018-08-11T10:06:36.415Z,10412.00
2018-08-11T10:07:36.422Z,9552.00
2018-08-11T10:08:36.431Z,14048.00
2018-08-11T10:09:36.441Z,12252.00
2018-08-11T10:10:36.471Z,19168.00
2018-08-11T10:11:36.456Z,31104.00
2018-08-11T10:12:36.465Z,30112.00
2018-08-11T10:13:36.475Z,29184.00
2018-08-11T10:14:36.483Z,28128.00
2018-08-11T10:15:36.493Z,27488.00
2018-08-11T10:16:36.502Z,28224.00
2018-08-11T10:17:36.510Z,21472.00
2018-08-11T10:18:36.568Z,9216.00
2018-08-11T10:19:36.529Z,30624.00
2018-08-11T10:20:36.537Z,10752.00
2018-08-11T10:21:36.548Z,31712.00
2018-08-11T10:22:36.561Z,8520.00
2018-08-11T10:23:36.566Z,24384.00
2018-08-11T10:24:36.576Z,34720.00
2018-08-11T10:25:36.587Z,34016.00
2018-08-11T10:26:36.597Z,34784.00
2018-08-11T10:27:36.606Z,35936.00
2018-08-11T10:28:36.616Z,37920.00
2018-08-11T10:29:36.626Z,37664.00
2018-08-11T10:30:36.636Z,23904.00
2018-08-11T10:31:36.645Z,15172.00
2018-08-11T10:32:36.655Z,12012.00
2018-08-11T10:33:36.666Z,12128.00
2018-08-11T10:34:36.679Z,10776.00
2018-08-11T10:35:36.685Z,11000.00
2018-08-11T10:36:36.695Z,11332.00
2018-08-11T10:37:36.705Z,11024.00
2018-08-11T10:38:36.721Z,9936.00
2018-08-11T10:39:36.726Z,8320.00
2018-08-11T10:40:36.735Z,6756.00
2018-08-11T10:41:36.744Z,5712.00
2018-08-11T10:42:36.751Z,5460.00
2018-08-11T10:43:36.759Z,5124.00
2018-08-11T10:44:36.770Z,4556.00
2018-08-11T10:45:36.776Z,3796.00
2018-08-11T10:46:36.785Z,3400.00
2018-08-11T10:47:36.796Z,3536.00
2018-08-11T10:48:36.801Z,4072.00
2018-08-11T10:49:36.809Z,4916.00
2018-08-11T10:50:36.815Z,6664.00
2018-08-11T10:51:36.822Z,10512.00
2018-08-11T10:52:36.830Z,14196.00
2018-08-11T10:53:36.838Z,15720.00
2018-08-11T10:54:36.844Z,8784.00
2018-08-11T10:55:36.850Z,6884.00
2018-08-11T10:56:36.856Z,5424.00
2018-08-11T10:57:36.862Z,4712.00
2018-08-11T10:58:36.872Z,4224.00
2018-08-11T10:59:36.875Z,3756.00
2018-08-11T11:00:36.882Z,3700.00
2018-08-11T11:01:36.888Z,3800.00
2018-08-11T11:02:36.895Z,4420.00
2018-08-11T11:03:36.900Z,5792.00
2018-08-11T11:04:36.906Z,10100.00
2018-08-11T11:05:36.912Z,10128.00
2018-08-11T11:06:36.918Z,11184.00
2018-08-11T11:07:36.924Z,11276.00
2018-08-11T11:08:36.927Z,10760.00
2018-08-11T11:09:36.935Z,9540.00
2018-08-11T11:10:36.940Z,7912.00
2018-08-11T11:11:36.944Z,7368.00
2018-08-11T11:12:36.950Z,7820.00
2018-08-11T11:13:36.960Z,8620.00
2018-08-11T11:14:36.963Z,8564.00
2018-08-11T11:15:36.967Z,8304.00
2018-08-11T11:16:36.974Z,8472.00
2018-08-11T11:17:36.978Z,8796.00
2018-08-11T11:18:36.983Z,8280.00
2018-08-11T11:19:36.989Z,7148.00
2018-08-11T11:20:36.994Z,6564.00
2018-08-11T11:22:25.339Z,6928.00
2018-08-11T11:23:25.344Z,6956.00
2018-08-11T11:24:25.351Z,7600.00
2018-08-11T11:25:25.354Z,10696.00
2018-08-11T11:26:25.359Z,12832.00
2018-08-11T11:27:25.363Z,12496.00
2018-08-11T11:28:25.368Z,13436.00
2018-08-11T11:29:25.376Z,9704.00
2018-08-11T11:30:25.379Z,7988.00
2018-08-11T11:31:25.382Z,7648.00
2018-08-11T11:32:25.390Z,7536.00
2018-08-11T11:33:25.394Z,7948.00
2018-08-11T11:34:25.397Z,8636.00
2018-08-11T11:35:25.403Z,11692.00
2018-08-11T11:36:25.409Z,11092.00
2018-08-11T11:37:25.446Z,9948.00
2018-08-11T11:38:25.420Z,9060.00
2018-08-11T11:39:25.424Z,8452.00
2018-08-11T11:40:25.429Z,8240.00
2018-08-11T11:41:25.434Z,8120.00
2018-08-11T11:42:25.438Z,8076.00
2018-08-11T11:43:25.501Z,8164.00
2018-08-11T11:44:25.448Z,8376.00
2018-08-11T11:45:25.454Z,7024.00
2018-08-11T11:46:25.461Z,7308.00
2018-08-11T11:47:25.464Z,6632.00
2018-08-11T11:48:25.471Z,7852.00
2018-08-11T11:49:25.477Z,9616.00
2018-08-11T11:50:25.478Z,9376.00
2018-08-11T11:51:25.483Z,11068.00
2018-08-11T11:52:25.488Z,10972.00
2018-08-11T11:53:25.493Z,11156.00
2018-08-11T11:54:25.500Z,11628.00
2018-08-11T11:55:25.503Z,11520.00
2018-08-11T11:56:25.507Z,10020.00
2018-08-11T11:57:25.513Z,8188.00
2018-08-11T11:58:25.517Z,10984.00
2018-08-11T11:59:25.522Z,9932.00
2018-08-11T12:00:25.528Z,11040.00
2018-08-11T12:01:25.534Z,8692.00
2018-08-11T12:02:25.537Z,7576.00
2018-08-11T12:03:25.542Z,6724.00
2018-08-11T12:04:25.547Z,6828.00
2018-08-11T12:05:25.562Z,7392.00
2018-08-11T12:06:25.558Z,8168.00
2018-08-11T12:07:25.562Z,8960.00
2018-08-11T12:08:25.569Z,11240.00
2018-08-11T12:09:25.576Z,11408.00
2018-08-11T12:10:25.579Z,10700.00
2018-08-11T12:11:25.584Z,9564.00
2018-08-11T12:12:25.589Z,6264.00
2018-08-11T12:13:25.595Z,5876.00
2018-08-11T12:14:25.612Z,5676.00
2018-08-11T12:15:25.603Z,5492.00
2018-08-11T12:16:25.608Z,5976.00
2018-08-11T12:17:25.613Z,6524.00
2018-08-11T12:18:25.618Z,6676.00
2018-08-11T12:19:25.635Z,6416.00
2018-08-11T12:20:25.629Z,5756.00
2018-08-11T12:21:25.635Z,5656.00
2018-08-11T12:22:25.637Z,8316.00
2018-08-11T12:23:25.645Z,6216.00
2018-08-11T12:24:25.647Z,6960.00
2018-08-11T12:25:25.652Z,6640.00
2018-08-11T12:26:25.657Z,6164.00
2018-08-11T12:27:25.662Z,5700.00